Time;durP1;ratioP1;P1;durP2;ratioP2;P2;SDS_P1;SDS_P2;PMS_P1;PMS_P2;Temp;Humidity;BMP_temperature;BMP_pressure;BME280_temperature;BME280_humidity;BME280_pressure;Samples;Min_cycle;Max_cycle;Signal;HPM_P1;HPM_P2
2024/01/15 00:01:30;;;;;;;1999.90;999.90;;;1.40;99.90;;;;;;5032164;28;20164;-71
2024/01/15 00:03:55;;;;;;;1999.90;999.90;;;1.40;99.90;;;;;;5031930;28;20620;-70
2024/01/15 00:06:21;;;;;;;1999.90;999.90;;;1.30;99.90;;;;;;5032040;28;20164;-70
2024/01/15 00:08:47;;;;;;;1999.90;999.90;;;1.40;99.90;;;;;;5032031;28;20270;-71
2024/01/15 00:11:12;;;;;;;1999.90;999.90;;;1.40;99.90;;;;;;5032087;28;20250;-71
2024/01/15 00:13:38;;;;;;;1999.90;999.90;;;1.20;99.90;;;;;;5031938;28;20211;-72
2024/01/15 00:16:06;;;;;;;1999.90;999.90;;;1.20;99.90;;;;;;5031749;28;20172;-71
2024/01/15 00:18:32;;;;;;;1999.90;999.90;;;1.20;99.90;;;;;;5031910;28;20180;-71
2024/01/15 00:20:57;;;;;;;1999.90;999.90;;;1.20;99.90;;;;;;5031887;28;20590;-71
2024/01/15 00:23:24;;;;;;;1999.90;999.90;;;1.20;99.90;;;;;;5031841;28;20246;-71
2024/01/15 00:25:51;;;;;;;1999.90;999.90;;;1.20;99.90;;;;;;5031693;28;20179;-70
2024/01/15 00:28:17;;;;;;;1999.90;999.90;;;1.30;99.90;;;;;;5031962;28;20193;-70
2024/01/15 00:30:42;;;;;;;1999.90;999.90;;;1.20;99.90;;;;;;5031882;28;20605;-70
2024/01/15 00:33:08;;;;;;;1999.90;999.90;;;1.40;99.90;;;;;;5031682;28;20196;-70
2024/01/15 00:35:35;;;;;;;1999.90;999.90;;;1.30;99.90;;;;;;5031545;28;20606;-72
2024/01/15 00:38:00;;;;;;;1999.90;999.90;;;1.30;99.90;;;;;;5031577;28;20207;-71
2024/01/15 00:40:26;;;;;;;1999.90;999.90;;;1.20;99.90;;;;;;5031824;28;20675;-72
2024/01/15 00:42:51;;;;;;;1999.90;999.90;;;1.40;99.90;;;;;;5031628;28;20164;-71
2024/01/15 00:45:17;;;;;;;1999.90;999.90;;;1.40;99.90;;;;;;5032889;28;20173;-71
2024/01/15 00:47:43;;;;;;;1999.90;999.90;;;1.40;99.90;;;;;;5035614;28;20222;-70
2024/01/15 00:50:09;;;;;;;1999.90;999.90;;;1.50;99.90;;;;;;5035677;28;20282;-71
2024/01/15 00:52:35;;;;;;;1999.90;999.90;;;1.30;99.90;;;;;;5035524;28;20203;-71
2024/01/15 00:55:00;;;;;;;1999.90;999.90;;;1.40;99.90;;;;;;5035446;28;20164;-71
2024/01/15 00:57:26;;;;;;;1999.90;999.90;;;;;;;;;;5035516;28;20218;-72
2024/01/15 00:59:52;;;;;;;1999.90;999.90;;;1.30;99.90;;;;;;5035529;28;20172;-73
2024/01/15 01:02:18;;;;;;;1999.90;999.90;;;1.60;99.90;;;;;;5035473;28;20546;-72
2024/01/15 01:04:43;;;;;;;1999.90;999.90;;;1.40;99.90;;;;;;5035207;28;20414;-72
2024/01/15 01:07:09;;;;;;;1999.90;999.90;;;1.50;99.90;;;;;;5035360;28;20172;-73
2024/01/15 01:09:34;;;;;;;1999.90;999.90;;;1.40;99.90;;;;;;5035561;28;20196;-73
2024/01/15 01:12:00;;;;;;;1999.90;999.90;;;1.60;99.90;;;;;;5035345;28;20725;-72
2024/01/15 01:14:26;;;;;;;1999.90;999.90;;;1.40;99.90;;;;;;5035046;28;20172;-72
2024/01/15 01:16:51;;;;;;;1999.90;999.90;;;1.40;99.90;;;;;;5035220;28;20167;-71
2024/01/15 01:19:17;;;;;;;1999.90;999.90;;;1.40;99.90;;;;;;5035060;28;20183;-70
2024/01/15 01:21:42;;;;;;;1999.90;999.90;;;1.40;99.90;;;;;;5035085;28;20566;-69
2024/01/15 01:24:08;;;;;;;1999.90;999.90;;;1.50;99.90;;;;;;5034832;28;20226;-69
2024/01/15 01:26:33;;;;;;;1999.90;999.90;;;1.50;99.90;;;;;;5035017;28;20167;-70
2024/01/15 01:28:59;;;;;;;1999.90;999.90;;;1.50;99.90;;;;;;5034885;28;20192;-70
2024/01/15 01:31:25;;;;;;;1999.90;999.90;;;1.60;99.90;;;;;;5034970;28;20605;-69
2024/01/15 01:33:50;;;;;;;1999.90;999.90;;;1.30;99.90;;;;;;5034596;28;20195;-70
2024/01/15 01:36:16;;;;;;;1999.90;999.90;;;1.50;99.90;;;;;;5034727;28;20173;-69
2024/01/15 01:38:41;;;;;;;1999.90;999.90;;;1.50;99.90;;;;;;5034700;28;20851;-69
2024/01/15 01:41:07;;;;;;;1999.90;999.90;;;1.50;99.90;;;;;;5034786;28;20167;-70
2024/01/15 01:43:33;;;;;;;1999.90;999.90;;;1.50;99.90;;;;;;5034725;28;20222;-69
2024/01/15 01:46:00;;;;;;;1999.90;999.90;;;1.50;99.90;;;;;;5034711;28;20169;-70
2024/01/15 01:48:26;;;;;;;1999.90;999.90;;;1.50;99.90;;;;;;5034808;28;20293;-70
2024/01/15 01:51:01;;;;;;;1999.90;999.90;;;1.50;99.90;;;;;;5034964;28;20192;-70
2024/01/15 01:53:27;;;;;;;1999.90;999.90;;;1.40;99.90;;;;;;5034909;28;20254;-70
2024/01/15 01:55:54;;;;;;;1999.90;999.90;;;1.70;99.90;;;;;;5034300;28;20185;-70
2024/01/15 01:58:20;;;;;;;1999.90;999.90;;;1.50;99.90;;;;;;5033846;28;20321;-69
2024/01/15 02:00:47;;;;;;;1999.90;999.90;;;1.60;99.90;;;;;;5032932;28;20245;-70
2024/01/15 02:03:12;;;;;;;1999.90;999.90;;;1.50;99.90;;;;;;5015011;28;20785;-70
2024/01/15 02:05:39;;;;;;;1999.90;999.90;;;1.50;99.90;;;;;;5014871;28;20176;-69
2024/01/15 02:08:05;;;;;;;1999.90;999.90;;;1.60;99.90;;;;;;5014774;28;20241;-70
2024/01/15 02:10:32;;;;;;;1999.90;999.90;;;1.50;99.90;;;;;;5014883;28;20608;-69
2024/01/15 02:12:58;;;;;;;1999.90;999.90;;;1.60;99.90;;;;;;5014907;28;20451;-70
2024/01/15 02:15:23;;;;;;;1999.90;999.90;;;1.60;99.90;;;;;;5014503;28;20175;-70
2024/01/15 02:18:03;;;;;;;1999.90;999.90;;;1.50;99.90;;;;;;5015188;28;20474;-70
2024/01/15 02:20:29;;;;;;;1999.90;999.90;;;1.40;99.90;;;;;;5014354;28;20188;-69
2024/01/15 02:23:14;;;;;;;1999.90;999.90;;;1.50;99.90;;;;;;5014175;28;20173;-69
2024/01/15 02:25:44;;;;;;;1999.90;999.90;;;1.40;99.90;;;;;;5013842;28;20177;-68
2024/01/15 02:28:12;;;;;;;1999.90;999.90;;;1.50;99.90;;;;;;5014102;28;20228;-69
2024/01/15 02:30:39;;;;;;;1999.90;999.90;;;1.40;99.90;;;;;;5014069;28;20179;-69
2024/01/15 02:33:09;;;;;;;1999.90;999.90;;;1.40;99.90;;;;;;5013929;28;20201;-70
2024/01/15 02:35:38;;;;;;;1999.90;999.90;;;1.50;99.90;;;;;;5013816;28;20607;-70
2024/01/15 02:38:05;;;;;;;1999.90;999.90;;;1.50;99.90;;;;;;5013866;28;20276;-69
2024/01/15 02:40:31;;;;;;;1999.90;999.90;;;1.50;99.90;;;;;;5013894;28;20165;-70
2024/01/15 02:42:56;;;;;;;1999.90;999.90;;;1.30;99.90;;;;;;5013792;28;20252;-69
2024/01/15 02:45:22;;;;;;;1999.90;999.90;;;1.60;99.90;;;;;;5013557;28;20200;-69
2024/01/15 02:47:48;;;;;;;1999.90;999.90;;;1.40;99.90;;;;;;5013693;28;20204;-69
2024/01/15 02:50:14;;;;;;;1999.90;999.90;;;1.50;99.90;;;;;;5013741;28;20200;-69
2024/01/15 02:52:40;;;;;;;1999.90;999.90;;;1.50;99.90;;;;;;5013573;28;20200;-69
2024/01/15 02:55:06;;;;;;;1999.90;999.90;;;1.40;99.90;;;;;;5013429;28;20819;-69
2024/01/15 02:57:31;;;;;;;1999.90;999.90;;;;;;;;;;5013461;28;20538;-69
2024/01/15 02:59:57;;;;;;;1999.90;999.90;;;1.10;99.90;;;;;;5013466;28;20403;-69
2024/01/15 03:02:23;;;;;;;1999.90;999.90;;;1.30;99.90;;;;;;5013412;28;20470;-69
2024/01/15 03:04:48;;;;;;;1999.90;999.90;;;1.50;99.90;;;;;;5013254;28;20168;-69
2024/01/15 03:07:14;;;;;;;1999.90;999.90;;;1.40;99.90;;;;;;5013264;28;20176;-69
2024/01/15 03:09:39;;;;;;;1999.90;999.90;;;1.30;99.90;;;;;;5013081;28;20197;-69
2024/01/15 03:12:05;;;;;;;1999.90;999.90;;;1.40;99.90;;;;;;5013208;28;20189;-70
2024/01/15 03:14:31;;;;;;;1999.90;999.90;;;1.20;99.90;;;;;;5013175;28;20528;-70
2024/01/15 03:16:56;;;;;;;1999.90;999.90;;;1.50;99.90;;;;;;5013158;28;20478;-68
2024/01/15 03:19:22;;;;;;;1999.90;999.90;;;1.50;99.90;;;;;;5013119;28;20181;-69
2024/01/15 03:21:48;;;;;;;1999.90;999.90;;;1.40;99.90;;;;;;5013170;28;20169;-69
2024/01/15 03:24:14;;;;;;;1999.90;999.90;;;1.40;99.90;;;;;;5012895;28;20175;-69
2024/01/15 03:26:39;;;;;;;1999.90;999.90;;;1.40;99.90;;;;;;5013014;28;20173;-70
2024/01/15 03:29:05;;;;;;;1999.90;999.90;;;1.50;99.90;;;;;;5013053;28;20996;-68
2024/01/15 03:31:31;;;;;;;1999.90;999.90;;;1.50;99.90;;;;;;5012989;28;20211;-68
2024/01/15 03:33:57;;;;;;;1999.90;999.90;;;1.50;99.90;;;;;;5012582;28;20347;-68
2024/01/15 03:36:22;;;;;;;1999.90;999.90;;;1.50;99.90;;;;;;5012980;28;20184;-69
2024/01/15 03:38:48;;;;;;;1999.90;999.90;;;1.60;99.90;;;;;;5012762;28;20185;-69
2024/01/15 03:41:14;;;;;;;1999.90;999.90;;;1.50;99.90;;;;;;5012862;28;20169;-68
2024/01/15 03:43:39;;;;;;;1999.90;999.90;;;1.60;99.90;;;;;;5012770;28;20196;-69
2024/01/15 03:46:05;;;;;;;1999.90;999.90;;;1.60;99.90;;;;;;5012428;28;20197;-68
2024/01/15 03:48:31;;;;;;;1999.90;999.90;;;1.60;99.90;;;;;;5012520;28;20565;-69
2024/01/15 03:50:57;;;;;;;1999.90;999.90;;;1.60;99.90;;;;;;5012673;28;20913;-69
2024/01/15 03:53:22;;;;;;;1999.90;999.90;;;1.60;99.90;;;;;;5012766;28;20204;-69
2024/01/15 03:55:48;;;;;;;1999.90;999.90;;;1.60;99.90;;;;;;5012306;28;20249;-69
2024/01/15 03:58:14;;;;;;;1999.90;999.90;;;1.80;99.90;;;;;;5012466;28;20242;-69
2024/01/15 04:00:40;;;;;;;1999.90;999.90;;;1.60;99.90;;;;;;5012463;28;20169;-69
2024/01/15 04:03:06;;;;;;;1999.90;999.90;;;1.50;99.90;;;;;;5012401;28;20264;-69
2024/01/15 04:05:32;;;;;;;1999.90;999.90;;;1.50;99.90;;;;;;5012243;28;20260;-70
2024/01/15 04:07:57;;;;;;;1999.90;999.90;;;1.60;99.90;;;;;;5012416;28;20671;-70
2024/01/15 04:10:23;;;;;;;1999.90;999.90;;;1.60;99.90;;;;;;5012348;28;20667;-68
2024/01/15 04:12:49;;;;;;;1999.90;999.90;;;1.50;99.90;;;;;;5012222;28;20192;-68
2024/01/15 04:15:15;;;;;;;1999.90;999.90;;;1.50;99.90;;;;;;5011975;28;20168;-68
2024/01/15 04:17:41;;;;;;;1999.90;999.90;;;1.50;99.90;;;;;;5012200;28;20181;-68
2024/01/15 04:20:07;;;;;;;1999.90;999.90;;;1.70;99.90;;;;;;5011580;28;20165;-69
2024/01/15 04:22:34;;;;;;;1999.90;999.90;;;1.60;99.90;;;;;;5012092;28;20169;-68
2024/01/15 04:25:00;;;;;;;1999.90;999.90;;;1.70;99.90;;;;;;5011928;28;20177;-68
2024/01/15 04:27:26;;;;;;;1999.90;999.90;;;;;;;;;;5012007;28;20651;-68
2024/01/15 04:29:51;;;;;;;1999.90;999.90;;;1.60;99.90;;;;;;5012099;28;20180;-68
2024/01/15 04:32:17;;;;;;;1999.90;999.90;;;1.60;99.90;;;;;;5012061;28;20967;-68
2024/01/15 04:34:42;;;;;;;1999.90;999.90;;;2.10;99.90;;;;;;5011856;28;20165;-70
2024/01/15 04:37:08;;;;;;;1999.90;999.90;;;1.40;99.90;;;;;;5012048;28;20716;-68
2024/01/15 04:39:34;;;;;;;1999.90;999.90;;;1.70;99.90;;;;;;5011950;28;20188;-69
2024/01/15 04:41:59;;;;;;;1999.90;999.90;;;1.90;99.90;;;;;;5012048;28;20629;-71
2024/01/15 04:44:25;;;;;;;1999.90;999.90;;;1.70;99.90;;;;;;5011780;28;20201;-69
2024/01/15 04:46:50;;;;;;;1999.90;999.90;;;1.90;99.90;;;;;;5011908;28;20256;-68
2024/01/15 04:49:16;;;;;;;1999.90;999.90;;;1.70;99.90;;;;;;5011733;28;20263;-68
2024/01/15 04:51:41;;;;;;;1999.90;999.90;;;1.70;99.90;;;;;;5011951;28;20257;-69
2024/01/15 04:54:07;;;;;;;1999.90;999.90;;;1.70;99.90;;;;;;5011634;28;20165;-70
2024/01/15 04:56:32;;;;;;;1999.90;999.90;;;1.60;99.90;;;;;;5011829;28;20173;-68
2024/01/15 04:58:58;;;;;;;1999.90;999.90;;;1.70;99.90;;;;;;5011790;28;20188;-68
2024/01/15 05:01:24;;;;;;;1999.90;999.90;;;1.80;99.90;;;;;;5011821;28;20176;-69
2024/01/15 05:03:49;;;;;;;1999.90;999.90;;;1.70;99.90;;;;;;5011570;28;20165;-69
2024/01/15 05:06:15;;;;;;;1999.90;999.90;;;1.60;99.90;;;;;;5011729;28;20169;-71
2024/01/15 05:08:41;;;;;;;1999.90;999.90;;;1.70;99.90;;;;;;5011682;28;20196;-69
2024/01/15 05:11:06;;;;;;;1999.90;999.90;;;1.60;99.90;;;;;;5011699;28;20173;-69
2024/01/15 05:13:32;;;;;;;1999.90;999.90;;;1.70;99.90;;;;;;5011597;28;20306;-69
2024/01/15 05:15:57;;;;;;;1999.90;999.90;;;1.50;99.90;;;;;;5011456;28;20171;-69
2024/01/15 05:18:23;;;;;;;1999.90;999.90;;;1.70;99.90;;;;;;5011580;28;20193;-71
2024/01/15 05:20:49;;;;;;;1999.90;999.90;;;1.50;99.90;;;;;;5011762;28;20197;-69
2024/01/15 05:23:14;;;;;;;1999.90;999.90;;;1.60;99.90;;;;;;5011670;28;20169;-69
2024/01/15 05:25:40;;;;;;;1999.90;999.90;;;1.50;99.90;;;;;;5011307;28;20253;-69
2024/01/15 05:28:06;;;;;;;1999.90;999.90;;;1.60;99.90;;;;;;5011488;28;20277;-71
2024/01/15 05:30:31;;;;;;;1999.90;999.90;;;1.50;99.90;;;;;;5011840;28;20633;-69
2024/01/15 05:33:01;;;;;;;1999.90;999.90;;;1.60;99.90;;;;;;5015114;28;20193;-69
2024/01/15 05:35:26;;;;;;;1999.90;999.90;;;1.60;99.90;;;;;;5014919;28;20224;-70
2024/01/15 05:37:52;;;;;;;1999.90;999.90;;;1.60;99.90;;;;;;5015109;28;20606;-70
2024/01/15 05:40:17;;;;;;;1999.90;999.90;;;1.70;99.90;;;;;;5015087;28;20258;-70
2024/01/15 05:42:43;;;;;;;1999.90;999.90;;;1.60;99.90;;;;;;5014951;28;20869;-69
2024/01/15 05:45:09;;;;;;;1999.90;999.90;;;1.80;99.90;;;;;;5014757;28;20197;-70
2024/01/15 05:47:35;;;;;;;1999.90;999.90;;;;;;;;;;5014769;28;20251;-70
2024/01/15 05:50:02;;;;;;;1999.90;999.90;;;1.50;99.90;;;;;;5015008;28;20528;-70
2024/01/15 05:52:28;;;;;;;1999.90;999.90;;;1.80;99.90;;;;;;5034037;28;20222;-72
2024/01/15 05:54:53;;;;;;;1999.90;999.90;;;1.70;99.90;;;;;;5027576;28;20165;-70
2024/01/15 05:57:20;;;;;;;1999.90;999.90;;;;;;;;;;5014576;28;20177;-70
2024/01/15 05:59:45;;;;;;;1999.90;999.90;;;1.70;99.90;;;;;;5014804;28;20172;-69
2024/01/15 06:02:11;;;;;;;1999.90;999.90;;;1.80;99.90;;;;;;5014627;28;20528;-69
2024/01/15 06:04:37;;;;;;;1999.90;999.90;;;1.80;99.90;;;;;;5014468;28;20157;-69
2024/01/15 06:07:02;;;;;;;1999.90;999.90;;;1.60;99.90;;;;;;5014505;28;20633;-70
2024/01/15 06:09:28;;;;;;;1999.90;999.90;;;1.50;99.90;;;;;;5022526;28;20519;-71
2024/01/15 06:11:54;;;;;;;1999.90;999.90;;;1.90;99.90;;;;;;5029235;28;20180;-70
2024/01/15 06:14:20;;;;;;;1999.90;999.90;;;1.80;99.90;;;;;;5033790;28;20164;-71
2024/01/15 06:16:46;;;;;;;1999.90;999.90;;;1.80;99.90;;;;;;5034152;28;20558;-69
2024/01/15 06:19:11;;;;;;;1999.90;999.90;;;1.60;99.90;;;;;;5034094;28;20227;-69
2024/01/15 06:21:37;;;;;;;1999.90;999.90;;;1.80;99.90;;;;;;5034038;28;20538;-69
2024/01/15 06:24:02;;;;;;;1999.90;999.90;;;1.90;99.90;;;;;;5033713;28;20172;-70
2024/01/15 06:26:28;;;;;;;1999.90;999.90;;;1.60;99.90;;;;;;5033889;28;20173;-69
2024/01/15 06:28:54;;;;;;;1999.90;999.90;;;1.80;99.90;;;;;;5033876;28;20192;-69
2024/01/15 06:31:19;;;;;;;1999.90;999.90;;;1.90;99.90;;;;;;5034067;28;20542;-69
2024/01/15 06:33:48;;;;;;;1999.90;999.90;;;1.90;99.90;;;;;;5033686;28;20204;-69
2024/01/15 06:36:14;;;;;;;1999.90;999.90;;;1.90;99.90;;;;;;5033710;28;20214;-70
2024/01/15 06:38:39;;;;;;;1999.90;999.90;;;1.70;99.90;;;;;;5033673;28;20270;-70
2024/01/15 06:41:05;;;;;;;1999.90;999.90;;;1.90;99.90;;;;;;5033680;28;20403;-69
2024/01/15 06:43:30;;;;;;;1999.90;999.90;;;1.90;99.90;;;;;;5032972;28;20168;-69
2024/01/15 06:45:56;;;;;;;1999.90;999.90;;;2.00;99.90;;;;;;5033356;28;20207;-69
2024/01/15 06:48:21;;;;;;;1999.90;999.90;;;1.90;99.90;;;;;;5033410;28;20211;-69
2024/01/15 06:50:47;;;;;;;1999.90;999.90;;;1.80;99.90;;;;;;5033553;28;20171;-69
2024/01/15 06:53:13;;;;;;;1999.90;999.90;;;1.90;99.90;;;;;;5033143;28;20283;-70
2024/01/15 06:55:39;;;;;;;1999.90;999.90;;;1.70;99.90;;;;;;5033102;28;20547;-69
2024/01/15 06:58:04;;;;;;;1999.90;999.90;;;1.70;99.90;;;;;;5033297;28;20180;-69
2024/01/15 07:00:30;;;;;;;1999.90;999.90;;;1.70;99.90;;;;;;5033297;28;20806;-69
2024/01/15 07:02:56;;;;;;;1999.90;999.90;;;1.80;99.90;;;;;;5033339;28;20177;-69
2024/01/15 07:05:22;;;;;;;1999.90;999.90;;;1.70;99.90;;;;;;5032975;28;20648;-69
2024/01/15 07:07:47;;;;;;;1999.90;999.90;;;1.80;99.90;;;;;;5033098;28;20202;-68
2024/01/15 07:10:13;;;;;;;1999.90;999.90;;;1.80;99.90;;;;;;5033100;28;20183;-69
2024/01/15 07:12:41;;;;;;;1999.90;999.90;;;1.70;99.90;;;;;;5028252;28;20229;-70
2024/01/15 07:15:08;;;;;;;1999.90;999.90;;;1.80;99.90;;;;;;5029251;28;20179;-70
2024/01/15 07:17:34;;;;;;;1999.90;999.90;;;;;;;;;;5032916;28;20165;-69
2024/01/15 07:19:59;;;;;;;1999.90;999.90;;;1.60;99.90;;;;;;5032930;28;20165;-69
2024/01/15 07:22:25;;;;;;;1999.90;999.90;;;1.90;99.90;;;;;;5032913;28;20663;-70
2024/01/15 07:24:50;;;;;;;1999.90;999.90;;;1.90;99.90;;;;;;5032655;28;20168;-69
2024/01/15 07:27:16;;;;;;;1999.90;999.90;;;1.90;99.90;;;;;;5031207;28;20558;-69
2024/01/15 07:29:42;;;;;;;1999.90;999.90;;;2.00;99.90;;;;;;5027301;28;20201;-69
2024/01/15 07:32:08;;;;;;;1999.90;999.90;;;1.90;99.90;;;;;;5029092;28;20198;-69
2024/01/15 07:34:34;;;;;;;1999.90;999.90;;;2.00;99.90;;;;;;5032477;28;20203;-70
2024/01/15 07:37:00;;;;;;;1999.90;999.90;;;2.00;99.90;;;;;;5032555;28;20418;-70
2024/01/15 07:39:25;;;;;;;1999.90;999.90;;;2.10;99.90;;;;;;5032494;28;20191;-70
2024/01/15 07:41:52;;;;;;;1999.90;999.90;;;2.00;99.90;;;;;;5032482;28;20168;-70
2024/01/15 07:44:17;;;;;;;1999.90;999.90;;;2.00;99.90;;;;;;5024020;28;20173;-70
2024/01/15 07:46:47;;;;;;;1999.90;999.90;;;2.00;99.90;;;;;;5032470;28;20175;-70
2024/01/15 07:49:13;;;;;;;1999.90;999.90;;;1.90;99.90;;;;;;5032234;28;20200;-70
2024/01/15 07:51:40;;;;;;;1999.90;999.90;;;2.00;99.90;;;;;;5032280;28;20169;-70
2024/01/15 07:54:06;;;;;;;1999.90;999.90;;;2.10;99.90;;;;;;5031362;28;20693;-70
2024/01/15 07:56:32;;;;;;;1999.90;999.90;;;2.10;99.90;;;;;;5031873;28;20259;-70
2024/01/15 07:58:58;;;;;;;1999.90;999.90;;;2.20;99.90;;;;;;5027948;28;20272;-70
2024/01/15 08:01:23;;;;;;;1999.90;999.90;;;2.00;99.90;;;;;;5023907;28;20402;-70
2024/01/15 08:03:49;;;;;;;1999.90;999.90;;;2.20;99.90;;;;;;5031930;28;20234;-70
2024/01/15 08:06:15;;;;;;;1999.90;999.90;;;2.10;99.90;;;;;;5032140;28;20199;-70
2024/01/15 08:08:40;;;;;;;1999.90;999.90;;;2.10;99.90;;;;;;5032031;28;20184;-71
2024/01/15 08:11:06;;;;;;;1999.90;999.90;;;2.20;99.90;;;;;;5032219;28;20914;-71
2024/01/15 08:13:31;;;;;;;1999.90;999.90;;;2.10;99.90;;;;;;5024801;28;20208;-71
2024/01/15 08:15:57;;;;;;;1999.90;999.90;;;2.10;99.90;;;;;;5012430;28;20171;-71
2024/01/15 08:18:22;;;;;;;1999.90;999.90;;;2.30;99.90;;;;;;5031034;28;20632;-70
2024/01/15 08:20:50;;;;;;;1999.90;999.90;;;2.30;99.90;;;;;;5023896;28;20176;-70
2024/01/15 08:23:15;;;;;;;1999.90;999.90;;;2.30;99.90;;;;;;5031910;28;20172;-70
2024/01/15 08:25:41;;;;;;;1999.90;999.90;;;2.20;99.90;;;;;;5031720;28;20172;-70
2024/01/15 08:28:08;;;;;;;1999.90;999.90;;;2.10;99.90;;;;;;5031895;28;20729;-69
2024/01/15 08:30:33;;;;;;;1999.90;999.90;;;2.20;99.90;;;;;;5026095;28;20223;-70
2024/01/15 08:33:00;;;;;;;1999.90;999.90;;;2.30;99.90;;;;;;5026596;28;20694;-70
2024/01/15 08:35:25;;;;;;;1999.90;999.90;;;2.10;99.90;;;;;;5031540;28;20206;-70
2024/01/15 08:37:52;;;;;;;1999.90;999.90;;;2.10;99.90;;;;;;5031766;28;20212;-70
2024/01/15 08:40:18;;;;;;;1999.90;999.90;;;2.30;99.90;;;;;;5031797;28;20230;-70
2024/01/15 08:42:45;;;;;;;1999.90;999.90;;;2.10;99.90;;;;;;5031716;28;20172;-70
2024/01/15 08:45:11;;;;;;;1999.90;999.90;;;2.00;99.90;;;;;;5031339;28;20183;-69
2024/01/15 08:47:37;;;;;;;1999.90;999.90;;;;;;;;;;5023188;28;20263;-69
2024/01/15 08:50:03;;;;;;;1999.90;999.90;;;1.10;99.90;;;;;;5025224;28;20539;-69
2024/01/15 08:52:29;;;;;;;1999.90;999.90;;;2.00;99.90;;;;;;5030332;28;20485;-69
2024/01/15 08:54:56;;;;;;;1999.90;999.90;;;2.70;99.90;;;;;;5031487;28;20204;-69
2024/01/15 08:57:22;;;;;;;1999.90;999.90;;;;;;;;;;5031493;28;20399;-70
2024/01/15 08:59:47;;;;;;;1999.90;999.90;;;1.80;99.90;;;;;;5031763;28;20176;-70
2024/01/15 09:02:13;;;;;;;1999.90;999.90;;;2.00;99.90;;;;;;5023151;28;20181;-71
2024/01/15 09:04:39;;;;;;;1999.90;999.90;;;2.10;99.90;;;;;;5031380;28;20172;-71
2024/01/15 09:07:04;;;;;;;1999.90;999.90;;;2.00;99.90;;;;;;5034269;28;20406;-72
2024/01/15 09:09:30;;;;;;;1999.90;999.90;;;1.80;99.90;;;;;;5035352;28;20207;-71
2024/01/15 09:11:56;;;;;;;1999.90;999.90;;;1.90;99.90;;;;;;5035281;28;20180;-71
2024/01/15 09:14:24;;;;;;;1999.90;999.90;;;1.90;99.90;;;;;;5035217;28;20172;-72
2024/01/15 09:16:49;;;;;;;1999.90;999.90;;;1.70;99.90;;;;;;5035220;28;20334;-72
2024/01/15 09:19:15;;;;;;;1999.90;999.90;;;1.80;99.90;;;;;;5035236;28;20219;-73
2024/01/15 09:21:40;;;;;;;1999.90;999.90;;;3.80;99.90;;;;;;5035333;28;20192;-73
2024/01/15 09:24:06;;;;;;;1999.90;999.90;;;1.40;99.90;;;;;;5035017;28;20171;-73
2024/01/15 09:26:32;;;;;;;1999.90;999.90;;;1.40;99.90;;;;;;5035144;28;20169;-74
2024/01/15 09:28:57;;;;;;;1999.90;999.90;;;1.40;99.90;;;;;;5035145;28;20199;-72
2024/01/15 09:31:23;;;;;;;1999.90;999.90;;;1.40;99.90;;;;;;5035075;28;20259;-72
2024/01/15 09:33:52;;;;;;;1999.90;999.90;;;1.30;99.90;;;;;;5034742;28;20235;-72
2024/01/15 09:36:18;;;;;;;1999.90;999.90;;;1.40;99.90;;;;;;5035009;28;20516;-72
2024/01/15 09:38:43;;;;;;;1999.90;999.90;;;1.40;99.90;;;;;;5034866;28;20194;-73
2024/01/15 09:41:09;;;;;;;1999.90;999.90;;;1.80;99.90;;;;;;5034989;28;20161;-73
2024/01/15 09:43:37;;;;;;;1999.90;999.90;;;1.50;99.90;;;;;;5034825;28;20240;-72
2024/01/15 09:46:03;;;;;;;1999.90;999.90;;;1.60;99.90;;;;;;5034501;28;20506;-72
2024/01/15 09:48:29;;;;;;;1999.90;999.90;;;1.40;99.90;;;;;;5034689;28;20266;-71
2024/01/15 09:50:57;;;;;;;1999.90;999.90;;;2.30;99.90;;;;;;5034797;28;20176;-71
2024/01/15 09:53:23;;;;;;;1999.90;999.90;;;1.70;99.90;;;;;;5035074;28;20192;-71
2024/01/15 09:55:50;;;;;;;1999.90;999.90;;;1.60;99.90;;;;;;5034924;28;20168;-72
2024/01/15 09:58:16;;;;;;;1999.90;999.90;;;1.80;99.90;;;;;;5035442;28;20656;-73
2024/01/15 10:00:44;;;;;;;1999.90;999.90;;;0.90;99.90;;;;;;5035884;28;20229;-73
2024/01/15 10:03:11;;;;;;;1999.90;999.90;;;1.70;99.90;;;;;;5037836;28;20199;-72
2024/01/15 10:05:37;;;;;;;1999.90;999.90;;;1.70;99.90;;;;;;5038574;28;20168;-71
2024/01/15 10:08:04;;;;;;;1999.90;999.90;;;1.60;99.90;;;;;;5039451;28;20188;-71
2024/01/15 10:10:29;;;;;;;1999.90;999.90;;;1.40;99.90;;;;;;5037123;28;20222;-71
2024/01/15 10:12:55;;;;;;;1999.90;999.90;;;1.60;99.90;;;;;;5034093;28;20200;-72
2024/01/15 10:15:26;;;;;;;1999.90;999.90;;;1.60;99.90;;;;;;5033938;28;20165;-72
2024/01/15 10:17:52;;;;;;;1999.90;999.90;;;1.60;99.90;;;;;;5033266;28;20200;-71
2024/01/15 10:20:17;;;;;;;1999.90;999.90;;;1.70;99.90;;;;;;5034218;28;20184;-71
2024/01/15 10:22:47;;;;;;;1999.90;999.90;;;1.80;99.90;;;;;;5034081;28;20410;-72
2024/01/15 10:25:14;;;;;;;1999.90;999.90;;;1.70;99.90;;;;;;5033922;28;20632;-73
2024/01/15 10:27:44;;;;;;;1999.90;999.90;;;1.60;99.90;;;;;;5033658;28;20200;-72
2024/01/15 10:30:10;;;;;;;1999.90;999.90;;;1.50;99.90;;;;;;5022444;28;20560;-72
2024/01/15 10:32:36;;;;;;;1999.90;999.90;;;1.50;99.90;;;;;;5029108;28;20258;-72
2024/01/15 10:35:02;;;;;;;1999.90;999.90;;;1.60;99.90;;;;;;5027536;28;20197;-72
2024/01/15 10:37:28;;;;;;;1999.90;999.90;;;;;;;;;;5031649;28;20176;-71
2024/01/15 10:39:53;;;;;;;1999.90;999.90;;;1.30;99.90;;;;;;5032116;28;20414;-72
2024/01/15 10:42:19;;;;;;;1999.90;999.90;;;1.50;99.90;;;;;;5033293;28;20434;-72
2024/01/15 10:44:48;;;;;;;1999.90;999.90;;;1.60;99.90;;;;;;5020747;28;20245;-72
2024/01/15 10:47:14;;;;;;;1999.90;999.90;;;1.50;99.90;;;;;;5025352;28;20173;-72
2024/01/15 10:49:41;;;;;;;1999.90;999.90;;;1.50;99.90;;;;;;5033524;28;20211;-72
2024/01/15 10:52:06;;;;;;;1999.90;999.90;;;1.50;99.90;;;;;;5033478;28;20177;-72
2024/01/15 10:54:33;;;;;;;1999.90;999.90;;;1.30;99.90;;;;;;5033381;28;20659;-72
2024/01/15 10:56:59;;;;;;;1999.90;999.90;;;1.50;99.90;;;;;;5033425;28;20795;-72
2024/01/15 10:59:25;;;;;;;1999.90;999.90;;;1.40;99.90;;;;;;5033756;28;20201;-72
2024/01/15 11:01:55;;;;;;;1999.90;999.90;;;1.40;99.90;;;;;;5033437;28;20414;-73
2024/01/15 11:04:23;;;;;;;1999.90;999.90;;;1.30;99.90;;;;;;5033179;28;20360;-72
2024/01/15 11:06:53;;;;;;;1999.90;999.90;;;1.40;99.90;;;;;;5033259;28;20683;-72
2024/01/15 11:09:19;;;;;;;1999.90;999.90;;;1.50;99.90;;;;;;5033188;28;20226;-72
2024/01/15 11:11:46;;;;;;;1999.90;999.90;;;1.50;99.90;;;;;;5033189;28;20208;-72
2024/01/15 11:14:44;;;;;;;1999.90;999.90;;;1.40;99.90;;;;;;5032874;28;20293;-72
2024/01/15 11:17:10;;;;;;;1999.90;999.90;;;1.50;99.90;;;;;;5033007;28;20169;-73
2024/01/15 11:19:45;;;;;;;1999.90;999.90;;;1.50;99.90;;;;;;5033057;28;20190;-72
2024/01/15 11:22:31;;;;;;;1999.90;999.90;;;1.40;99.90;;;;;;5034206;28;20168;-72
2024/01/15 11:24:57;;;;;;;1999.90;999.90;;;1.50;99.90;;;;;;5033483;28;20188;-71
2024/01/15 11:27:42;;;;;;;1999.90;999.90;;;1.50;99.90;;;;;;5033259;28;20169;-72
2024/01/15 11:30:12;;;;;;;1999.90;999.90;;;1.70;99.90;;;;;;5032764;28;20156;-71
2024/01/15 11:32:42;;;;;;;1999.90;999.90;;;1.50;99.90;;;;;;5032836;28;20643;-71
2024/01/15 11:35:09;;;;;;;1999.90;999.90;;;1.80;99.90;;;;;;5032596;28;20171;-72
2024/01/15 11:37:55;;;;;;;1999.90;999.90;;;1.60;99.90;;;;;;5033426;28;20183;-71
2024/01/15 11:40:35;;;;;;;1999.90;999.90;;;1.70;99.90;;;;;;5032790;28;20160;-73
2024/01/15 11:43:02;;;;;;;1999.90;999.90;;;1.60;99.90;;;;;;5032842;28;20165;-71
2024/01/15 11:45:29;;;;;;;1999.90;999.90;;;1.80;99.90;;;;;;5032587;28;20222;-73
2024/01/15 11:48:17;;;;;;;1999.90;999.90;;;1.70;99.90;;;;;;5032493;28;20318;-73
2024/01/15 11:50:45;;;;;;;1999.90;999.90;;;1.70;99.90;;;;;;5032507;28;20306;-73
2024/01/15 11:53:18;;;;;;;1999.90;999.90;;;1.90;99.90;;;;;;5032328;28;20558;-73
2024/01/15 11:55:45;;;;;;;1999.90;999.90;;;1.90;99.90;;;;;;5032197;28;20174;-74
2024/01/15 11:58:11;;;;;;;1999.90;999.90;;;2.20;99.90;;;;;;5031980;28;20710;-73
2024/01/15 12:00:42;;;;;;;1999.90;999.90;;;2.40;99.90;;;;;;5031973;28;20264;-73
2024/01/15 12:03:09;;;;;;;1999.90;999.90;;;2.70;99.90;;;;;;5032165;28;20164;-73
2024/01/15 12:05:38;;;;;;;1999.90;999.90;;;3.40;99.90;;;;;;5031739;28;20183;-72
2024/01/15 12:08:07;;;;;;;1999.90;999.90;;;4.00;99.90;;;;;;5027209;28;20950;-68